Time;durP1;ratioP1;P1;durP2;ratioP2;P2;SDS_P1;SDS_P2;PMS_P1;PMS_P2;Temp;Humidity;BMP_temperature;BMP_pressure;BME280_temperature;BME280_humidity;BME280_pressure;Samples;Min_cycle;Max_cycle;Signal;HPM_P1;HPM_P2
2021/10/14 00:00:18;;;;;;;;;;;;;;;18.43;56.81;100480.19;2088032;28;19916;-43
2021/10/14 00:01:18;;;;;;;;;;;;;;;18.43;56.82;100480.19;2088979;28;19958;-44
2021/10/14 00:02:20;;;;;;;;;;;;;;;18.45;56.89;100484.66;2089516;28;19944;-43
2021/10/14 00:03:21;;;;;;;;;;;;;;;18.43;56.84;100477.47;2085374;28;20090;-43
2021/10/14 00:04:21;;;;;;;;;;;;;;;18.43;56.99;100482.94;2089898;28;19916;-43
2021/10/14 00:05:22;;;;;;;;;;;;;;;18.42;56.83;100474.88;2086338;28;19927;-43
2021/10/14 00:06:22;;;;;;;;;;;;;;;18.42;56.73;100475.75;2085463;28;19939;-43
2021/10/14 00:07:22;;;;;;;;;;;;;;;18.43;56.92;100476.63;2090784;28;19959;-43
2021/10/14 00:08:23;;;;;;;;;;;;;;;18.43;56.88;100476.63;2086904;28;19916;-43
2021/10/14 00:09:23;;;;;;;;;;;;;;;18.42;56.73;100467.56;2087835;28;19916;-43
2021/10/14 00:10:24;;;;;;;;;;;;;;;18.43;56.69;100471.16;2089321;28;19931;-43
2021/10/14 00:11:24;;;;;;;;;;;;;;;18.42;56.81;100463.94;2089724;28;19917;-43
2021/10/14 00:12:24;;;;;;;;;;;;;;;18.41;56.93;100468.56;2089277;28;19919;-43
2021/10/14 00:13:25;;;;;;;;;;;;;;;18.42;56.84;100474.88;2085321;28;19912;-43
2021/10/14 00:14:25;;;;;;;;;;;;;;;18.41;56.88;100473.16;2086955;28;19928;-43
2021/10/14 00:15:26;;;;;;;;;;;;;;;18.40;56.88;100472.28;2088742;28;20082;-43
2021/10/14 00:16:26;;;;;;;;;;;;;;;18.42;56.70;100474.88;2087709;28;20363;-43
2021/10/14 00:17:26;;;;;;;;;;;;;;;18.40;56.80;100472.28;2087161;28;19927;-43
2021/10/14 00:18:27;;;;;;;;;;;;;;;18.41;56.77;100476.75;2090736;28;19938;-43
2021/10/14 00:19:27;;;;;;;;;;;;;;;18.40;56.69;100477.75;2092386;28;19947;-43
2021/10/14 00:20:28;;;;;;;;;;;;;;;18.40;56.83;100477.75;2089993;28;19916;-43
2021/10/14 00:21:28;;;;;;;;;;;;;;;18.40;56.91;100472.28;2087482;28;20262;-43
2021/10/14 00:22:29;;;;;;;;;;;;;;;18.40;56.80;100477.75;2089675;28;19916;-43
2021/10/14 00:23:29;;;;;;;;;;;;;;;18.40;56.76;100472.28;2093453;28;19916;-43
2021/10/14 00:24:29;;;;;;;;;;;;;;;18.40;56.66;100477.75;2091105;28;19908;-43
2021/10/14 00:25:30;;;;;;;;;;;;;;;18.39;56.69;100481.47;2090186;28;19916;-43
2021/10/14 00:26:31;;;;;;;;;;;;;;;18.39;56.87;100480.59;2083896;28;19904;-43
2021/10/14 00:27:31;;;;;;;;;;;;;;;18.39;56.76;100484.19;2087775;28;19932;-43
2021/10/14 00:28:32;;;;;;;;;;;;;;;18.39;56.79;100473.28;2093759;28;19923;-43
2021/10/14 00:29:32;;;;;;;;;;;;;;;18.38;56.69;100479.75;2091270;28;19916;-43
2021/10/14 00:30:32;;;;;;;;;;;;;;;18.38;56.78;100468.84;2092705;28;19919;-43
2021/10/14 00:31:32;;;;;;;;;;;;;;;18.38;56.78;100474.28;2090297;28;19924;-43
2021/10/14 00:32:33;;;;;;;;;;;;;;;18.38;56.71;100478.91;2092493;28;19968;-43
2021/10/14 00:33:33;;;;;;;;;;;;;;;18.38;56.59;100482.47;2089658;28;19912;-43
2021/10/14 00:34:33;;;;;;;;;;;;;;;18.38;56.61;100471.56;2088303;28;19916;-43
2021/10/14 00:35:34;;;;;;;;;;;;;;;18.37;56.62;100472.56;2094415;28;19947;-43
2021/10/14 00:36:34;;;;;;;;;;;;;;;18.37;56.81;100469.84;2093696;28;19916;-43
2021/10/14 00:37:35;;;;;;;;;;;;;;;18.37;56.65;100472.56;2091465;28;19920;-43
2021/10/14 00:38:35;;;;;;;;;;;;;;;18.37;56.74;100461.66;2088446;28;19958;-43
2021/10/14 00:39:36;;;;;;;;;;;;;;;18.36;56.83;100465.38;2095038;28;19979;-43
2021/10/14 00:40:36;;;;;;;;;;;;;;;18.37;56.59;100469.84;2090755;28;19912;-43
2021/10/14 00:41:38;;;;;;;;;;;;;;;18.37;56.63;100467.13;2091941;28;20627;-43
2021/10/14 00:42:38;;;;;;;;;;;;;;;18.37;56.63;100467.13;2089042;28;19941;-43
2021/10/14 00:43:39;;;;;;;;;;;;;;;18.36;56.72;100462.63;2090355;28;20363;-43
2021/10/14 00:44:43;;;;;;;;;;;;;;;18.36;56.72;100464.50;2091513;28;19945;-43
2021/10/14 00:45:43;;;;;;;;;;;;;;;18.36;56.55;100465.38;2088803;28;20490;-43
2021/10/14 00:46:54;;;;;;;;;;;;;;;18.37;56.51;100478.03;2093224;28;20337;-43
2021/10/14 00:47:55;;;;;;;;;;;;;;;18.36;56.75;100470.81;2090576;28;20530;-43
2021/10/14 00:48:56;;;;;;;;;;;;;;;18.36;56.60;100464.50;2094157;28;19999;-43
2021/10/14 00:49:57;;;;;;;;;;;;;;;18.36;56.58;100468.09;2089447;28;19966;-43
2021/10/14 00:50:57;;;;;;;;;;;;;;;18.36;56.70;100464.50;2092190;28;19923;-43
2021/10/14 00:51:57;;;;;;;;;;;;;;;18.35;56.60;100458.19;2095014;28;19916;-43
2021/10/14 00:52:57;;;;;;;;;;;;;;;18.35;56.59;100466.38;2092093;28;19916;-43
2021/10/14 00:53:58;;;;;;;;;;;;;;;18.36;56.76;100467.25;2090971;28;19908;-43
2021/10/14 00:54:59;;;;;;;;;;;;;;;18.36;56.72;100462.63;2087599;28;20320;-43
2021/10/14 00:55:59;;;;;;;;;;;;;;;18.35;56.57;100463.66;2091337;28;19967;-43
2021/10/14 00:56:59;;;;;;;;;;;;;;;18.35;56.79;100460.94;2086275;28;19920;-43
2021/10/14 00:58:00;;;;;;;;;;;;;;;18.34;56.73;100467.38;2085325;28;19948;-43
2021/10/14 00:59:02;;;;;;;;;;;;;;;18.35;56.77;100463.66;2089766;28;19958;-43
2021/10/14 01:00:03;;;;;;;;;;;;;;;18.35;56.64;100466.38;2089132;28;19950;-43
2021/10/14 01:01:04;;;;;;;;;;;;;;;18.34;56.71;100459.19;2089824;28;20046;-43
2021/10/14 01:02:05;;;;;;;;;;;;;;;18.34;56.57;100467.38;2092961;28;19912;-43
2021/10/14 01:03:06;;;;;;;;;;;;;;;18.34;56.82;100459.19;2087528;28;19923;-43
2021/10/14 01:04:06;;;;;;;;;;;;;;;18.34;56.68;100466.50;2089361;28;20200;-43
2021/10/14 01:05:07;;;;;;;;;;;;;;;18.34;56.74;100467.38;2090419;28;19912;-43
2021/10/14 01:06:07;;;;;;;;;;;;;;;18.33;56.82;100453.88;2085870;28;19924;-43
2021/10/14 01:07:07;;;;;;;;;;;;;;;18.34;56.77;100463.78;2086259;28;20299;-43
2021/10/14 01:08:08;;;;;;;;;;;;;;;18.34;56.64;100461.06;2092385;28;19912;-43
2021/10/14 01:09:08;;;;;;;;;;;;;;;18.33;56.84;100454.72;2094167;28;19997;-44
2021/10/14 01:10:09;;;;;;;;;;;;;;;18.33;56.65;100457.47;2087678;28;19928;-43
2021/10/14 01:11:11;;;;;;;;;;;;;;;18.33;56.61;100453.88;2088122;28;20388;-43
2021/10/14 01:12:13;;;;;;;;;;;;;;;18.32;56.58;100454.84;2085195;28;19932;-43
2021/10/14 01:13:13;;;;;;;;;;;;;;;18.32;56.94;100455.72;2088324;28;20150;-43
2021/10/14 01:14:13;;;;;;;;;;;;;;;18.33;56.74;100457.47;2089338;28;19916;-43
2021/10/14 01:15:18;;;;;;;;;;;;;;;18.32;56.63;100458.44;2094452;28;19920;-43
2021/10/14 01:16:18;;;;;;;;;;;;;;;18.32;56.78;100453.00;2088697;28;20007;-43
2021/10/14 01:17:19;;;;;;;;;;;;;;;18.32;56.61;100449.41;2089309;28;20260;-45
2021/10/14 01:18:19;;;;;;;;;;;;;;;18.32;56.66;100457.59;2092720;28;20450;-43
2021/10/14 01:19:20;;;;;;;;;;;;;;;18.32;56.57;100455.72;2092111;28;20409;-43
2021/10/14 01:20:20;;;;;;;;;;;;;;;18.32;56.54;100453.00;2096585;28;19916;-43
2021/10/14 01:21:20;;;;;;;;;;;;;;;18.32;56.62;100457.59;2088611;28;20275;-43
2021/10/14 01:22:20;;;;;;;;;;;;;;;18.31;56.66;100456.72;2094312;28;20355;-43
2021/10/14 01:23:21;;;;;;;;;;;;;;;18.31;56.64;100454.00;2090636;28;19916;-43
2021/10/14 01:24:21;;;;;;;;;;;;;;;18.32;56.61;100457.59;2091391;28;20420;-43
2021/10/14 01:25:21;;;;;;;;;;;;;;;18.32;56.60;100455.72;2094081;28;19959;-43
2021/10/14 01:26:22;;;;;;;;;;;;;;;18.31;56.67;100456.72;2090325;28;19924;-43
2021/10/14 01:27:27;;;;;;;;;;;;;;;18.31;56.78;100451.28;2088741;28;19920;-43
2021/10/14 01:28:27;;;;;;;;;;;;;;;18.31;56.56;100454.00;2085169;28;19962;-43
2021/10/14 01:29:27;;;;;;;;;;;;;;;18.31;56.56;100444.97;2087769;28;19915;-44
2021/10/14 01:30:28;;;;;;;;;;;;;;;18.31;56.61;100450.41;2091835;28;19923;-43
2021/10/14 01:31:29;;;;;;;;;;;;;;;18.30;56.56;100444.09;2089616;28;19923;-43
2021/10/14 01:32:29;;;;;;;;;;;;;;;18.29;56.55;100442.34;2089860;28;20257;-43
2021/10/14 01:33:30;;;;;;;;;;;;;;;18.30;56.64;100441.38;2096032;28;20377;-43
2021/10/14 01:34:31;;;;;;;;;;;;;;;18.29;56.80;100439.63;2081130;28;20033;-42
2021/10/14 01:35:31;;;;;;;;;;;;;;;18.29;56.62;100442.34;2085550;28;19916;-42
2021/10/14 01:36:32;;;;;;;;;;;;;;;18.29;56.64;100436.91;2089326;28;19921;-42
2021/10/14 01:37:32;;;;;;;;;;;;;;;18.30;56.58;100438.63;2091696;28;20759;-43
2021/10/14 01:38:32;;;;;;;;;;;;;;;18.31;56.59;100436.78;2086529;28;19963;-42
2021/10/14 01:39:33;;;;;;;;;;;;;;;18.29;56.56;100436.91;2090059;28;20281;-42
2021/10/14 01:40:33;;;;;;;;;;;;;;;18.29;56.67;100436.91;2091242;28;20020;-43
2021/10/14 01:41:33;;;;;;;;;;;;;;;18.29;56.70;100436.91;2087388;28;20529;-42
2021/10/14 01:42:34;;;;;;;;;;;;;;;18.31;56.85;100429.44;2087766;28;19966;-43
2021/10/14 01:43:34;;;;;;;;;;;;;;;18.30;56.78;100430.47;2084888;28;20198;-42
2021/10/14 01:44:35;;;;;;;;;;;;;;;18.30;56.76;100427.72;2089648;28;19927;-43
2021/10/14 01:45:35;;;;;;;;;;;;;;;18.30;56.66;100425.00;2089182;28;19916;-43
2021/10/14 01:46:35;;;;;;;;;;;;;;;18.28;56.75;100427.00;2092796;28;20619;-43
2021/10/14 01:47:36;;;;;;;;;;;;;;;18.29;56.67;100425.97;2089005;28;20031;-43
2021/10/14 01:48:36;;;;;;;;;;;;;;;18.28;56.67;100424.25;2091629;28;19964;-42
2021/10/14 01:49:37;;;;;;;;;;;;;;;18.29;56.65;100419.66;2088568;28;19923;-43
2021/10/14 01:50:37;;;;;;;;;;;;;;;18.29;56.89;100425.97;2093812;28;20635;-43
2021/10/14 01:51:37;;;;;;;;;;;;;;;18.29;56.96;100415.06;2089906;28;20047;-42
2021/10/14 01:52:38;;;;;;;;;;;;;;;18.28;56.66;100417.94;2094312;28;19916;-43
2021/10/14 01:53:38;;;;;;;;;;;;;;;18.28;56.72;100410.63;2088370;28;19965;-42
2021/10/14 01:54:38;;;;;;;;;;;;;;;18.29;56.65;100414.19;2095078;28;19915;-42
2021/10/14 01:55:39;;;;;;;;;;;;;;;18.27;56.86;100417.06;2092519;28;20068;-43
2021/10/14 01:56:40;;;;;;;;;;;;;;;18.28;56.96;100417.94;2091385;28;19939;-43
2021/10/14 01:57:40;;;;;;;;;;;;;;;18.27;56.78;100417.06;2095510;28;19961;-43
2021/10/14 01:58:41;;;;;;;;;;;;;;;18.28;56.87;100412.50;2090288;28;19923;-43
2021/10/14 01:59:41;;;;;;;;;;;;;;;18.28;56.96;100410.63;2085883;28;20410;-43
2021/10/14 02:00:41;;;;;;;;;;;;;;;18.27;56.96;100411.59;2089849;28;19916;-43
2021/10/14 02:01:42;;;;;;;;;;;;;;;18.27;56.86;100411.59;2088590;28;19916;-42
2021/10/14 02:02:42;;;;;;;;;;;;;;;18.27;56.84;100406.13;2091701;28;20303;-43
2021/10/14 02:03:42;;;;;;;;;;;;;;;18.27;56.74;100411.59;2092615;28;19909;-42
2021/10/14 02:04:43;;;;;;;;;;;;;;;18.27;56.70;100411.59;2095536;28;20009;-43
2021/10/14 02:05:43;;;;;;;;;;;;;;;18.27;56.74;100411.59;2089090;28;19956;-42
2021/10/14 02:06:44;;;;;;;;;;;;;;;18.27;56.74;100410.75;2097151;28;20094;-44
2021/10/14 02:07:44;;;;;;;;;;;;;;;18.26;56.79;100409.88;2089601;28;19924;-42
2021/10/14 02:08:44;;;;;;;;;;;;;;;18.26;56.92;100412.63;2094068;28;20185;-42
2021/10/14 02:09:45;;;;;;;;;;;;;;;18.26;56.87;100412.63;2088043;28;19920;-43
2021/10/14 02:10:45;;;;;;;;;;;;;;;18.26;56.71;100403.56;2087316;28;19969;-43
2021/10/14 02:11:45;;;;;;;;;;;;;;;18.25;56.71;100402.72;2094818;28;19923;-43
2021/10/14 02:12:47;;;;;;;;;;;;;;;18.26;56.73;100407.16;2087132;28;19916;-43
2021/10/14 02:13:47;;;;;;;;;;;;;;;18.26;56.76;100409.88;2087004;28;20336;-43
2021/10/14 02:14:48;;;;;;;;;;;;;;;18.26;56.77;100415.34;2096886;28;19948;-43
2021/10/14 02:15:48;;;;;;;;;;;;;;;18.25;56.75;100399.97;2096326;28;19951;-43
2021/10/14 02:16:48;;;;;;;;;;;;;;;18.26;56.82;100409.88;2093644;28;19942;-43
2021/10/14 02:17:49;;;;;;;;;;;;;;;18.27;56.68;100413.47;2090387;28;20317;-43
2021/10/14 02:18:49;;;;;;;;;;;;;;;18.26;56.72;100415.34;2095770;28;19946;-43
2021/10/14 02:19:49;;;;;;;;;;;;;;;18.25;56.84;100408.16;2093946;28;19916;-43
2021/10/14 02:20:50;;;;;;;;;;;;;;;18.25;56.85;100413.63;2089611;28;20533;-43
2021/10/14 02:21:50;;;;;;;;;;;;;;;18.26;56.77;100414.50;2094504;28;19969;-43
2021/10/14 02:22:50;;;;;;;;;;;;;;;18.26;56.89;100409.03;2084803;28;19971;-43
2021/10/14 02:23:51;;;;;;;;;;;;;;;18.25;56.76;100416.34;2086811;28;19920;-43
2021/10/14 02:24:51;;;;;;;;;;;;;;;18.26;56.92;100409.88;2092435;28;19916;-43
2021/10/14 02:25:51;;;;;;;;;;;;;;;18.25;56.83;100410.91;2088655;28;19923;-43
2021/10/14 02:26:52;;;;;;;;;;;;;;;18.23;56.92;100404.72;2087783;28;19917;-43
2021/10/14 02:27:52;;;;;;;;;;;;;;;18.24;56.78;100409.16;2087957;28;20532;-43
2021/10/14 02:28:52;;;;;;;;;;;;;;;18.25;56.99;100401.81;2091948;28;19927;-43
2021/10/14 02:29:53;;;;;;;;;;;;;;;18.24;56.77;100406.44;2090722;28;19916;-43
2021/10/14 02:30:53;;;;;;;;;;;;;;;18.24;56.96;100406.44;2093679;28;19923;-43
2021/10/14 02:31:54;;;;;;;;;;;;;;;18.24;56.77;100400.97;2088051;28;20265;-43
2021/10/14 02:32:54;;;;;;;;;;;;;;;18.23;56.93;100410.16;2089688;28;19974;-43
2021/10/14 02:33:55;;;;;;;;;;;;;;;18.23;57.04;100415.63;2093482;28;20370;-43
2021/10/14 02:34:57;;;;;;;;;;;;;;;18.24;56.79;100417.34;2092987;28;20479;-43
2021/10/14 02:35:57;;;;;;;;;;;;;;;18.23;56.91;100410.16;2092049;28;20005;-43
2021/10/14 02:36:57;;;;;;;;;;;;;;;18.23;56.78;100412.91;2091417;28;19920;-43
2021/10/14 02:37:58;;;;;;;;;;;;;;;18.24;56.94;100408.28;2093942;28;19923;-43
2021/10/14 02:38:58;;;;;;;;;;;;;;;18.24;56.83;100405.56;2094553;28;19973;-43
2021/10/14 02:39:58;;;;;;;;;;;;;;;18.23;56.87;100407.44;2096364;28;19913;-43
2021/10/14 02:40:59;;;;;;;;;;;;;;;18.23;57.03;100410.16;2089050;28;20007;-43
2021/10/14 02:41:59;;;;;;;;;;;;;;;18.23;56.88;100410.16;2085920;28;19947;-43
2021/10/14 02:42:59;;;;;;;;;;;;;;;18.22;56.95;100402.97;2091444;28;19922;-43
2021/10/14 02:44:00;;;;;;;;;;;;;;;18.23;56.93;100410.16;2087825;28;20171;-43
2021/10/14 02:45:00;;;;;;;;;;;;;;;18.24;56.83;100411.03;2092222;28;19916;-43
2021/10/14 02:46:00;;;;;;;;;;;;;;;18.23;56.87;100407.44;2092640;28;20510;-43
2021/10/14 02:47:01;;;;;;;;;;;;;;;18.23;56.91;100407.44;2089267;28;19916;-43
2021/10/14 02:48:01;;;;;;;;;;;;;;;18.23;56.86;100404.72;2089825;28;19916;-43
2021/10/14 02:49:01;;;;;;;;;;;;;;;18.22;56.84;100408.41;2093919;28;20159;-43
2021/10/14 02:50:02;;;;;;;;;;;;;;;18.22;56.85;100402.97;2090791;28;19943;-43
2021/10/14 02:51:02;;;;;;;;;;;;;;;18.22;56.94;100400.22;2093547;28;19919;-43
2021/10/14 02:52:03;;;;;;;;;;;;;;;18.22;57.05;100397.50;2094593;28;20330;-44
2021/10/14 02:53:04;;;;;;;;;;;;;;;18.22;57.00;100397.50;2092684;28;19922;-43
2021/10/14 02:54:04;;;;;;;;;;;;;;;18.22;56.87;100402.97;2091321;28;19927;-43
2021/10/14 02:55:05;;;;;;;;;;;;;;;18.22;57.06;100413.88;2088342;28;19955;-43
2021/10/14 02:56:05;;;;;;;;;;;;;;;18.23;56.96;100403.81;2090176;28;19927;-43
2021/10/14 02:57:06;;;;;;;;;;;;;;;18.22;56.92;100405.69;2087668;28;19963;-44
2021/10/14 02:58:06;;;;;;;;;;;;;;;18.22;56.93;100402.97;2089228;28;20357;-43
2021/10/14 02:59:06;;;;;;;;;;;;;;;18.23;57.01;100403.81;2092995;28;19916;-43
2021/10/14 03:00:07;;;;;;;;;;;;;;;18.22;57.04;100411.16;2089801;28;19970;-43
2021/10/14 03:01:08;;;;;;;;;;;;;;;18.21;57.15;100410.28;2086759;28;19920;-43
2021/10/14 03:02:08;;;;;;;;;;;;;;;18.22;57.14;100405.69;2092887;28;19995;-43
2021/10/14 03:03:09;;;;;;;;;;;;;;;18.22;57.14;100411.16;2092656;28;19923;-43
2021/10/14 03:04:09;;;;;;;;;;;;;;;18.22;57.10;100411.16;2088114;28;19993;-43
2021/10/14 03:05:09;;;;;;;;;;;;;;;18.21;56.92;100406.72;2089475;28;20334;-43
2021/10/14 03:06:10;;;;;;;;;;;;;;;18.22;56.96;100411.16;2095097;28;19977;-43
2021/10/14 03:07:10;;;;;;;;;;;;;;;18.21;57.12;100401.25;2091703;28;19985;-43
2021/10/14 03:08:10;;;;;;;;;;;;;;;18.21;57.03;100409.44;2093612;28;19930;-43
2021/10/14 03:09:11;;;;;;;;;;;;;;;18.21;56.94;100406.72;2096234;28;20396;-43
2021/10/14 03:10:11;;;;;;;;;;;;;;;18.20;57.04;100411.31;2091170;28;19927;-43
2021/10/14 03:11:11;;;;;;;;;;;;;;;18.20;57.12;100411.31;2094183;28;19938;-43
2021/10/14 03:12:12;;;;;;;;;;;;;;;18.20;56.87;100402.22;2085068;28;19922;-43
2021/10/14 03:13:12;;;;;;;;;;;;;;;18.20;57.07;100407.69;2091305;28;20853;-43
2021/10/14 03:14:12;;;;;;;;;;;;;;;18.20;57.10;100404.97;2087428;28;19916;-43
2021/10/14 03:15:12;;;;;;;;;;;;;;;18.20;57.13;100405.84;2089269;28;19935;-43
2021/10/14 03:16:13;;;;;;;;;;;;;;;18.21;56.87;100406.72;2101420;28;19935;-43
2021/10/14 03:17:13;;;;;;;;;;;;;;;18.19;57.04;100404.09;2095303;28;19944;-43
2021/10/14 03:18:14;;;;;;;;;;;;;;;18.20;56.83;100407.69;2089513;28;20399;-43
2021/10/14 03:19:14;;;;;;;;;;;;;;;18.19;57.06;100401.38;2088004;28;20626;-43
2021/10/14 03:20:14;;;;;;;;;;;;;;;18.19;57.01;100403.25;2092249;28;19924;-44
2021/10/14 03:21:16;;;;;;;;;;;;;;;18.19;57.11;100404.09;2095196;28;20215;-43
2021/10/14 03:22:16;;;;;;;;;;;;;;;18.20;57.06;100402.22;2091598;28;19927;-43
2021/10/14 03:23:16;;;;;;;;;;;;;;;18.19;57.08;100408.69;2093063;28;19958;-43
2021/10/14 03:24:17;;;;;;;;;;;;;;;18.19;57.06;100408.69;2088681;28;19918;-43
2021/10/14 03:25:17;;;;;;;;;;;;;;;18.20;57.03;100415.88;2089003;28;19943;-43
2021/10/14 03:26:17;;;;;;;;;;;;;;;18.19;57.23;100416.88;2092346;28;20519;-43
2021/10/14 03:27:18;;;;;;;;;;;;;;;18.19;57.12;100420.47;2092017;28;20004;-43
2021/10/14 03:28:18;;;;;;;;;;;;;;;18.19;57.17;100419.63;2096864;28;19912;-43
2021/10/14 03:29:18;;;;;;;;;;;;;;;18.19;56.92;100425.94;2093241;28;21160;-44
2021/10/14 03:30:19;;;;;;;;;;;;;;;18.18;56.91;100421.50;2091146;28;19927;-43
2021/10/14 03:31:19;;;;;;;;;;;;;;;18.19;56.98;100425.06;2088370;28;19905;-42
2021/10/14 03:32:19;;;;;;;;;;;;;;;18.18;57.01;100423.34;2090249;28;20261;-42
2021/10/14 03:33:20;;;;;;;;;;;;;;;18.19;57.16;100425.06;2094508;28;19912;-43
2021/10/14 03:34:20;;;;;;;;;;;;;;;18.18;57.14;100417.91;2086620;28;19913;-43
2021/10/14 03:35:20;;;;;;;;;;;;;;;18.19;57.24;100419.63;2085286;28;19916;-43
2021/10/14 03:36:20;;;;;;;;;;;;;;;18.18;57.10;100423.34;2091011;28;19948;-43
2021/10/14 03:37:21;;;;;;;;;;;;;;;18.19;57.24;100416.88;2087105;28;19917;-43
2021/10/14 03:38:21;;;;;;;;;;;;;;;18.17;57.08;100419.75;2089564;28;19916;-43
2021/10/14 03:39:22;;;;;;;;;;;;;;;18.18;57.13;100417.91;2090557;28;19916;-43
2021/10/14 03:40:23;;;;;;;;;;;;;;;18.18;57.16;100423.34;2090270;28;19923;-43
2021/10/14 03:41:23;;;;;;;;;;;;;;;18.17;57.24;100416.16;2092879;28;20288;-43
2021/10/14 03:42:24;;;;;;;;;;;;;;;18.16;57.13;100415.28;2091208;28;19938;-43
2021/10/14 03:43:24;;;;;;;;;;;;;;;18.17;57.22;100424.34;2095905;28;19916;-43
2021/10/14 03:44:24;;;;;;;;;;;;;;;18.17;57.25;100416.16;2086118;28;20007;-43
2021/10/14 03:45:25;;;;;;;;;;;;;;;18.16;57.18;100426.22;2090890;28;20285;-43
2021/10/14 03:46:25;;;;;;;;;;;;;;;18.16;57.23;100419.91;2092167;28;20003;-43
2021/10/14 03:47:26;;;;;;;;;;;;;;;18.17;57.22;100416.16;2087797;28;19988;-43
2021/10/14 03:48:26;;;;;;;;;;;;;;;18.16;57.13;100419.91;2095156;28;20216;-43
2021/10/14 03:49:26;;;;;;;;;;;;;;;18.16;57.15;100425.34;2092204;28;19917;-43
2021/10/14 03:50:26;;;;;;;;;;;;;;;18.17;57.09;100421.59;2093933;28;20016;-43
2021/10/14 03:51:27;;;;;;;;;;;;;;;18.17;57.28;100416.16;2093461;28;19968;-43
2021/10/14 03:52:27;;;;;;;;;;;;;;;18.16;57.31;100426.22;2089779;28;19923;-43
2021/10/14 03:53:27;;;;;;;;;;;;;;;18.16;57.25;100425.34;2086566;28;22019;-43
2021/10/14 03:54:28;;;;;;;;;;;;;;;18.15;57.29;100423.59;2088112;28;20449;-43
2021/10/14 03:55:28;;;;;;;;;;;;;;;18.15;57.07;100424.50;2086683;28;19916;-43
2021/10/14 03:56:29;;;;;;;;;;;;;;;18.15;57.15;100424.50;2092004;28;19963;-43
2021/10/14 03:57:29;;;;;;;;;;;;;;;18.17;57.21;100427.06;2088948;28;20311;-43
2021/10/14 03:58:29;;;;;;;;;;;;;;;18.16;57.19;100430.81;2091866;28;20260;-43
2021/10/14 03:59:30;;;;;;;;;;;;;;;18.15;57.20;100429.94;2095289;28;19916;-43
2021/10/14 04:00:30;;;;;;;;;;;;;;;18.16;57.42;100425.34;2092191;28;20355;-46
2021/10/14 04:01:30;;;;;;;;;;;;;;;18.16;57.18;100425.34;2091241;28;19904;-43
2021/10/14 04:02:30;;;;;;;;;;;;;;;18.16;57.24;100425.34;2090640;28;19920;-43
2021/10/14 04:03:31;;;;;;;;;;;;;;;18.16;57.19;100425.34;2086727;28;19950;-43
2021/10/14 04:04:31;;;;;;;;;;;;;;;18.15;57.17;100429.94;2088345;28;20419;-43
2021/10/14 04:05:31;;;;;;;;;;;;;;;18.16;57.00;100428.09;2090832;28;19920;-43
2021/10/14 04:06:32;;;;;;;;;;;;;;;18.14;57.11;100425.47;2090961;28;19920;-43
2021/10/14 04:07:32;;;;;;;;;;;;;;;18.14;57.28;100422.75;2095709;28;19977;-43
2021/10/14 04:08:32;;;;;;;;;;;;;;;18.14;57.10;100422.75;2087287;28;20765;-43
2021/10/14 04:09:32;;;;;;;;;;;;;;;18.14;57.29;100421.91;2085553;28;19922;-43
2021/10/14 04:10:33;;;;;;;;;;;;;;;18.14;57.18;100421.91;2093513;28;20226;-46
2021/10/14 04:11:33;;;;;;;;;;;;;;;18.14;57.02;100421.91;2087244;28;19981;-43
2021/10/14 04:12:34;;;;;;;;;;;;;;;18.14;57.22;100422.75;2089859;28;19924;-43
2021/10/14 04:13:34;;;;;;;;;;;;;;;18.14;57.17;100424.63;2091931;28;19954;-43
2021/10/14 04:14:34;;;;;;;;;;;;;;;18.13;57.09;100421.03;2089911;28;20054;-43
2021/10/14 04:15:34;;;;;;;;;;;;;;;18.14;57.03;100424.63;2091053;28;19947;-44
2021/10/14 04:16:35;;;;;;;;;;;;;;;18.15;57.23;100431.78;2099627;28;19927;-43
2021/10/14 04:17:35;;;;;;;;;;;;;;;18.14;57.34;100421.91;2086623;28;20517;-43
2021/10/14 04:18:36;;;;;;;;;;;;;;;18.14;57.13;100427.34;2093767;28;19916;-43
2021/10/14 04:19:36;;;;;;;;;;;;;;;18.14;57.26;100427.34;2092271;28;20744;-43
2021/10/14 04:20:37;;;;;;;;;;;;;;;18.14;57.33;100427.34;2092877;28;19916;-43
2021/10/14 04:21:38;;;;;;;;;;;;;;;18.13;57.21;100429.22;2094563;28;20212;-43
2021/10/14 04:22:38;;;;;;;;;;;;;;;18.13;57.27;100429.22;2088062;28;20010;-43
2021/10/14 04:23:43;;;;;;;;;;;;;;;18.15;57.38;100429.06;2090678;28;19920;-43
2021/10/14 04:24:45;;;;;;;;;;;;;;;18.13;57.28;100437.41;2088395;28;19932;-43
2021/10/14 04:25:46;;;;;;;;;;;;;;;18.14;57.17;100438.25;2088375;28;19985;-43
2021/10/14 04:26:47;;;;;;;;;;;;;;;18.13;57.25;100436.53;2093503;28;19928;-43
2021/10/14 04:27:47;;;;;;;;;;;;;;;18.13;57.34;100442.00;2088565;28;19920;-44
2021/10/14 04:28:47;;;;;;;;;;;;;;;18.12;57.37;100438.38;2086968;28;20608;-43
2021/10/14 04:29:48;;;;;;;;;;;;;;;18.13;57.17;100442.84;2092585;28;19908;-43
2021/10/14 04:30:48;;;;;;;;;;;;;;;18.14;57.25;100443.72;2089967;28;19985;-43
2021/10/14 04:31:49;;;;;;;;;;;;;;;18.13;57.00;100439.28;2086475;28;19948;-43
2021/10/14 04:32:49;;;;;;;;;;;;;;;18.13;57.16;100442.00;2098233;28;19919;-43
2021/10/14 04:33:49;;;;;;;;;;;;;;;18.13;57.17;100442.00;2099986;28;19923;-43
2021/10/14 04:34:51;;;;;;;;;;;;;;;18.13;57.16;100442.00;2092681;28;20247;-43
2021/10/14 04:35:51;;;;;;;;;;;;;;;18.12;57.19;100445.72;2091351;28;19916;-44
2021/10/14 04:36:51;;;;;;;;;;;;;;;18.13;57.12;100444.72;2086091;28;19912;-43
2021/10/14 04:37:52;;;;;;;;;;;;;;;18.12;57.18;100456.63;2086933;28;19916;-43
2021/10/14 04:38:53;;;;;;;;;;;;;;;18.12;57.23;100449.31;2096763;28;19947;-43
2021/10/14 04:39:53;;;;;;;;;;;;;;;18.12;57.14;100454.75;2092328;28;19965;-43
2021/10/14 04:40:54;;;;;;;;;;;;;;;18.11;57.00;100441.28;2101528;28;19961;-43
2021/10/14 04:41:54;;;;;;;;;;;;;;;18.12;57.12;100451.16;2090589;28;19920;-43
2021/10/14 04:42:54;;;;;;;;;;;;;;;18.11;57.05;100442.13;2090011;28;19951;-43
2021/10/14 04:43:55;;;;;;;;;;;;;;;18.12;57.19;100451.16;2088086;28;20595;-43
2021/10/14 04:44:55;;;;;;;;;;;;;;;18.11;57.14;100441.28;2091344;28;19952;-43
2021/10/14 04:45:55;;;;;;;;;;;;;;;18.11;57.32;100449.44;2092894;28;19938;-43
2021/10/14 04:46:55;;;;;;;;;;;;;;;18.11;57.19;100450.31;2091554;28;20850;-43
2021/10/14 04:47:56;;;;;;;;;;;;;;;18.11;57.25;100446.72;2086442;28;19923;-43
2021/10/14 04:48:56;;;;;;;;;;;;;;;18.11;57.31;100444.00;2086502;28;19917;-43
2021/10/14 04:49:57;;;;;;;;;;;;;;;18.11;57.06;100446.72;2099860;28;20721;-43
2021/10/14 04:50:57;;;;;;;;;;;;;;;18.10;57.24;100444.97;2091270;28;21029;-43
2021/10/14 04:51:58;;;;;;;;;;;;;;;18.11;57.14;100444.00;2092864;28;19920;-43
2021/10/14 04:52:58;;;;;;;;;;;;;;;18.11;57.21;100455.75;2091811;28;19916;-43
2021/10/14 04:53:58;;;;;;;;;;;;;;;18.10;57.29;100454.03;2086344;28;20299;-43
2021/10/14 04:54:59;;;;;;;;;;;;;;;18.11;57.24;100454.91;2091783;28;20346;-43
2021/10/14 04:55:59;;;;;;;;;;;;;;;18.10;57.05;100448.56;2089658;28;20803;-43
2021/10/14 04:56:59;;;;;;;;;;;;;;;18.10;57.38;100445.84;2090986;28;20278;-43
2021/10/14 04:58:00;;;;;;;;;;;;;;;18.10;57.25;100442.25;2091388;28;19968;-43
2021/10/14 04:59:01;;;;;;;;;;;;;;;18.10;57.10;100442.25;2089625;28;20299;-43
2021/10/14 05:00:02;;;;;;;;;;;;;;;18.10;57.20;100439.53;2090474;28;19920;-43
2021/10/14 05:01:03;;;;;;;;;;;;;;;18.10;57.20;100443.09;2092516;28;19920;-44
2021/10/14 05:02:03;;;;;;;;;;;;;;;18.10;57.26;100440.38;2087975;28;19916;-43
2021/10/14 05:03:03;;;;;;;;;;;;;;;18.09;57.06;100441.41;2091886;28;20331;-43
2021/10/14 05:04:04;;;;;;;;;;;;;;;18.10;57.24;100436.78;2089160;28;19923;-43
2021/10/14 05:05:05;;;;;;;;;;;;;;;18.08;57.27;100439.69;2087842;28;19962;-43
2021/10/14 05:06:05;;;;;;;;;;;;;;;18.09;57.27;100443.25;2094177;28;19920;-43
2021/10/14 05:07:05;;;;;;;;;;;;;;;18.09;57.24;100435.06;2090502;28;20689;-43
2021/10/14 05:08:06;;;;;;;;;;;;;;;18.09;57.21;100435.06;2090676;28;19921;-43
2021/10/14 05:09:07;;;;;;;;;;;;;;;18.08;57.34;100438.78;2086333;28;20222;-43
2021/10/14 05:10:07;;;;;;;;;;;;;;;18.08;57.41;100438.78;2088055;28;20057;-43